createdAt,value
2023-03-02T00:00:16.632Z,90.60
2023-03-02T00:03:06.590Z,86.60
2023-03-02T00:05:36.382Z,84.40
2023-03-02T00:08:05.642Z,82.50
2023-03-02T00:10:35.742Z,84.80
2023-03-02T00:13:05.461Z,75.60
2023-03-02T00:15:34.301Z,73.90
2023-03-02T00:18:03.556Z,79.50
2023-03-02T00:20:32.557Z,75.50
2023-03-02T00:23:01.271Z,75.60
2023-03-02T00:25:30.230Z,74.20
2023-03-02T00:27:58.805Z,69.30
2023-03-02T00:30:27.380Z,68.50
2023-03-02T00:32:55.930Z,74.20
2023-03-02T00:35:27.305Z,65.40
2023-03-02T00:37:55.828Z,72.60
2023-03-02T00:40:24.739Z,71.80
2023-03-02T00:42:53.507Z,75.00
2023-03-02T00:45:22.190Z,77.50
2023-03-02T00:47:50.745Z,68.40
2023-03-02T00:50:19.699Z,68.40
2023-03-02T00:52:48.219Z,68.80
2023-03-02T00:55:16.878Z,66.40
2023-03-02T00:57:45.406Z,65.70
2023-03-02T01:00:14.289Z,64.80
2023-03-02T01:02:44.712Z,63.50
2023-03-02T01:05:14.662Z,60.70
2023-03-02T01:07:43.293Z,58.50
2023-03-02T01:10:12.374Z,62.30
2023-03-02T01:12:41.364Z,59.00
2023-03-02T01:15:11.496Z,57.70
2023-03-02T01:17:41.565Z,53.40
2023-03-02T01:20:12.355Z,54.10
2023-03-02T01:22:41.013Z,54.40
2023-03-02T01:25:09.986Z,57.00
2023-03-02T01:27:38.551Z,54.50
2023-03-02T01:30:08.307Z,51.80
2023-03-02T01:32:37.097Z,53.00
2023-03-02T01:35:06.557Z,58.30
2023-03-02T01:37:35.147Z,58.40
2023-03-02T01:40:06.830Z,53.80
2023-03-02T01:42:39.892Z,46.60
2023-03-02T01:45:46.203Z,53.40
2023-03-02T01:48:20.884Z,47.30
2023-03-02T01:50:51.217Z,47.30
2023-03-02T01:53:21.994Z,47.80
2023-03-02T01:55:50.794Z,46.90
2023-03-02T01:58:20.910Z,42.80
2023-03-02T02:00:50.351Z,47.50
2023-03-02T02:03:25.170Z,42.10
2023-03-02T02:06:18.904Z,53.50
2023-03-02T02:08:49.849Z,63.20
2023-03-02T02:11:19.413Z,77.00
2023-03-02T02:13:48.525Z,68.90
2023-03-02T02:16:17.451Z,62.90
2023-03-02T02:18:46.742Z,60.20
2023-03-02T02:21:16.496Z,48.80
2023-03-02T02:23:58.215Z,54.40
2023-03-02T02:26:32.062Z,50.20
2023-03-02T02:29:03.350Z,41.60
2023-03-02T02:31:46.028Z,42.00
2023-03-02T02:34:35.292Z,52.20
2023-03-02T02:37:13.719Z,48.30
2023-03-02T02:39:46.786Z,47.10
2023-03-02T02:42:21.312Z,41.00
2023-03-02T02:44:58.024Z,50.20
2023-03-02T02:47:26.684Z,59.40
2023-03-02T02:49:56.904Z,51.70
2023-03-02T02:52:28.252Z,50.50
2023-03-02T02:54:58.944Z,49.60
2023-03-02T02:57:30.732Z,50.20
2023-03-02T03:00:01.283Z,50.30
2023-03-02T03:02:37.568Z,47.80
2023-03-02T03:05:06.891Z,44.30
2023-03-02T03:07:35.523Z,50.00
2023-03-02T03:10:14.549Z,39.20
2023-03-02T03:12:43.795Z,37.30
2023-03-02T03:15:13.364Z,41.30
2023-03-02T03:17:41.925Z,37.60
2023-03-02T03:20:16.374Z,40.90
2023-03-02T03:22:45.165Z,41.80
2023-03-02T03:25:15.714Z,40.80
2023-03-02T03:27:44.980Z,41.20
2023-03-02T03:30:15.176Z,37.30
2023-03-02T03:32:44.331Z,37.00
2023-03-02T03:35:13.715Z,39.10
2023-03-02T03:37:43.795Z,31.60
2023-03-02T03:40:12.508Z,38.50
2023-03-02T03:42:41.444Z,38.30
2023-03-02T03:45:10.610Z,32.70
2023-03-02T03:47:40.150Z,32.60
2023-03-02T03:50:09.404Z,29.50
2023-03-02T03:52:37.952Z,32.40
2023-03-02T03:55:07.219Z,34.90
2023-03-02T03:57:36.438Z,33.60
2023-03-02T04:00:08.459Z,33.90
2023-03-02T04:02:38.452Z,32.20
2023-03-02T04:05:08.586Z,31.10
2023-03-02T04:07:38.549Z,33.50
2023-03-02T04:10:08.972Z,31.50
2023-03-02T04:12:40.707Z,34.20
2023-03-02T04:15:15.761Z,32.40
2023-03-02T04:17:45.387Z,29.90
2023-03-02T04:20:17.651Z,31.50
2023-03-02T04:22:48.652Z,25.80
2023-03-02T04:25:20.781Z,32.90
2023-03-02T04:27:51.288Z,26.90
2023-03-02T04:30:23.912Z,30.60
2023-03-02T04:32:52.975Z,29.70
2023-03-02T04:35:21.692Z,26.30
2023-03-02T04:37:50.496Z,26.90
2023-03-02T04:40:19.066Z,28.10
2023-03-02T04:42:49.003Z,25.90
2023-03-02T04:45:18.698Z,24.10
2023-03-02T04:47:47.312Z,25.30
2023-03-02T04:50:16.415Z,24.30
2023-03-02T04:52:45.083Z,17.90
2023-03-02T04:55:23.039Z,21.20
2023-03-02T04:57:51.505Z,21.90
2023-03-02T05:00:21.364Z,21.70
2023-03-02T05:02:50.622Z,24.10
2023-03-02T05:05:23.895Z,21.20
2023-03-02T05:07:53.271Z,23.80
2023-03-02T05:10:23.016Z,23.60
2023-03-02T05:12:55.026Z,25.60
2023-03-02T05:15:36.614Z,33.00
2023-03-02T05:18:08.607Z,28.90
2023-03-02T05:20:37.814Z,33.80
2023-03-02T05:23:09.448Z,37.90
2023-03-02T05:25:39.229Z,42.40
2023-03-02T05:28:08.330Z,29.20
2023-03-02T05:30:38.131Z,29.80
2023-03-02T05:33:07.332Z,26.80
2023-03-02T05:35:36.686Z,25.20
2023-03-02T05:38:06.473Z,27.80
2023-03-02T05:40:35.535Z,26.50
2023-03-02T05:43:05.270Z,27.50
2023-03-02T05:45:38.966Z,28.60
2023-03-02T05:48:09.430Z,28.20
2023-03-02T05:50:38.486Z,28.70
2023-03-02T05:53:07.273Z,28.60
2023-03-02T05:55:38.877Z,23.70
2023-03-02T05:58:12.188Z,31.90
2023-03-02T06:00:41.687Z,26.70
2023-03-02T06:03:10.389Z,33.50
2023-03-02T06:05:39.343Z,38.70
2023-03-02T06:08:08.243Z,35.90
2023-03-02T06:10:36.886Z,33.00
2023-03-02T06:13:05.483Z,29.40
2023-03-02T06:15:35.096Z,40.60
2023-03-02T06:18:04.237Z,79.40
2023-03-02T06:20:33.439Z,36.30
2023-03-02T06:23:02.137Z,36.00
2023-03-02T06:25:30.975Z,38.20
2023-03-02T06:27:59.454Z,32.00
2023-03-02T06:30:28.658Z,32.20
2023-03-02T06:32:57.163Z,31.70
2023-03-02T06:35:25.799Z,28.80
2023-03-02T06:37:54.273Z,27.80
2023-03-02T06:40:22.790Z,30.20
2023-03-02T06:42:51.234Z,25.70
2023-03-02T06:45:19.908Z,27.10
2023-03-02T06:47:48.518Z,30.20
2023-03-02T06:50:17.179Z,25.60
2023-03-02T06:52:45.819Z,24.00
2023-03-02T06:55:14.347Z,24.80
2023-03-02T06:57:42.996Z,26.20
2023-03-02T07:00:25.862Z,24.30
2023-03-02T07:02:56.659Z,26.80
2023-03-02T07:05:25.303Z,27.00
2023-03-02T07:07:54.443Z,29.90
2023-03-02T07:10:23.118Z,28.10
2023-03-02T07:12:53.071Z,27.20
2023-03-02T07:15:22.056Z,23.70
2023-03-02T07:17:50.658Z,28.20
2023-03-02T07:20:19.601Z,29.80
2023-03-02T07:22:48.286Z,26.00
2023-03-02T07:25:17.033Z,28.10
2023-03-02T07:27:45.602Z,25.30
2023-03-02T07:30:15.509Z,32.80
2023-03-02T07:32:44.111Z,34.10
2023-03-02T07:35:12.698Z,26.10
2023-03-02T07:37:41.867Z,28.10
2023-03-02T07:40:11.903Z,44.90
2023-03-02T07:42:40.981Z,38.40
2023-03-02T07:45:11.943Z,29.90
2023-03-02T07:47:40.694Z,41.50
2023-03-02T07:50:10.232Z,29.20
2023-03-02T07:52:38.822Z,36.10
2023-03-02T07:55:07.672Z,25.30
2023-03-02T07:57:36.780Z,25.60
2023-03-02T08:00:06.179Z,26.90
2023-03-02T08:02:35.295Z,27.00
2023-03-02T08:05:04.129Z,30.00
2023-03-02T08:07:33.184Z,47.50
2023-03-02T08:10:01.784Z,29.00
2023-03-02T08:12:30.431Z,21.40
2023-03-02T08:14:59.105Z,23.90
2023-03-02T08:17:27.844Z,21.00
2023-03-02T08:19:56.519Z,24.10
2023-03-02T08:22:25.677Z,23.50
2023-03-02T08:24:54.158Z,23.70
2023-03-02T08:27:23.084Z,24.70
2023-03-02T08:29:51.638Z,24.00
2023-03-02T08:32:20.862Z,23.30
2023-03-02T08:34:52.070Z,27.20
2023-03-02T08:37:21.206Z,27.80
2023-03-02T08:39:49.994Z,27.30
2023-03-02T08:42:18.727Z,26.40
2023-03-02T08:44:47.438Z,24.20
2023-03-02T08:47:16.028Z,31.80
2023-03-02T08:49:45.565Z,23.90
2023-03-02T08:52:15.698Z,24.60
2023-03-02T08:54:44.435Z,21.50
2023-03-02T08:57:13.672Z,18.60
2023-03-02T08:59:42.640Z,19.20
2023-03-02T09:02:12.759Z,22.00
2023-03-02T09:04:42.258Z,23.20
2023-03-02T09:07:11.392Z,23.20
2023-03-02T09:09:40.052Z,23.20
2023-03-02T09:12:08.656Z,23.70
2023-03-02T09:14:37.799Z,25.10
2023-03-02T09:17:06.880Z,29.30
2023-03-02T09:19:44.286Z,27.00
2023-03-02T09:22:13.387Z,29.70
2023-03-02T09:24:41.942Z,25.20
2023-03-02T09:27:10.764Z,31.20
2023-03-02T09:29:39.444Z,33.70
2023-03-02T09:32:08.140Z,26.20
2023-03-02T09:34:36.964Z,38.70
2023-03-02T09:37:05.908Z,26.30
2023-03-02T09:39:35.026Z,25.90
2023-03-02T09:42:48.880Z,23.50
2023-03-02T09:45:46.270Z,22.60
2023-03-02T09:48:42.797Z,24.30
2023-03-02T09:51:36.850Z,24.30
2023-03-02T09:54:13.027Z,21.50
2023-03-02T09:56:49.767Z,24.70
2023-03-02T09:59:22.135Z,26.80
2023-03-02T10:02:04.413Z,26.20
2023-03-02T10:04:45.475Z,26.80
2023-03-02T10:07:16.315Z,22.80
2023-03-02T10:09:45.298Z,22.80
2023-03-02T10:12:41.513Z,21.00
2023-03-02T10:15:41.168Z,23.70
2023-03-02T10:18:21.614Z,20.50
2023-03-02T10:21:01.172Z,21.80
2023-03-02T10:23:44.705Z,21.90
2023-03-02T10:26:32.141Z,17.00
2023-03-02T10:29:19.544Z,23.70
2023-03-02T10:31:55.816Z,19.60
2023-03-02T10:34:29.768Z,20.60
2023-03-02T10:39:27.568Z,23.10
2023-03-02T10:42:04.001Z,25.60
2023-03-02T10:44:39.293Z,28.50
2023-03-02T10:47:08.884Z,23.70
2023-03-02T10:49:42.886Z,26.60
2023-03-02T10:52:32.750Z,23.90
2023-03-02T10:55:14.096Z,26.80
2023-03-02T10:57:44.822Z,26.60
2023-03-02T11:00:25.655Z,24.80
2023-03-02T11:03:18.665Z,24.30
2023-03-02T11:05:48.126Z,23.00
2023-03-02T11:08:25.845Z,25.40
2023-03-02T11:11:03.646Z,28.30
2023-03-02T11:13:37.540Z,29.30
2023-03-02T11:16:28.717Z,26.30
2023-03-02T11:19:15.499Z,26.30
2023-03-02T11:22:03.373Z,25.90
2023-03-02T11:24:55.536Z,26.10
2023-03-02T11:27:33.884Z,27.90
2023-03-02T11:30:22.948Z,28.20
2023-03-02T11:33:01.014Z,31.40
2023-03-02T11:35:47.986Z,27.40
2023-03-02T11:38:28.875Z,27.00
2023-03-02T11:41:24.873Z,29.80
2023-03-02T11:43:55.402Z,29.30
2023-03-02T11:46:34.090Z,28.00
2023-03-02T11:49:07.606Z,29.00
2023-03-02T11:51:47.169Z,26.90
2023-03-02T11:55:00.568Z,27.10
2023-03-02T11:57:37.105Z,31.10
2023-03-02T12:00:22.606Z,28.60
2023-03-02T12:03:15.998Z,28.70
2023-03-02T12:05:51.903Z,28.90
2023-03-02T12:08:20.397Z,31.00
2023-03-02T12:11:09.160Z,33.10
2023-03-02T12:13:40.400Z,32.70
2023-03-02T12:16:41.336Z,29.40
2023-03-02T12:19:39.196Z,31.70
2023-03-02T12:22:12.618Z,35.90
2023-03-02T12:24:45.543Z,34.20
2023-03-02T12:27:39.367Z,32.90
2023-03-02T12:30:18.723Z,28.30
2023-03-02T12:33:04.357Z,31.20
2023-03-02T12:35:34.916Z,30.00
2023-03-02T12:38:08.444Z,26.60
2023-03-02T12:40:39.960Z,30.80
2023-03-02T12:43:21.847Z,29.50
2023-03-02T12:46:26.354Z,30.50
2023-03-02T12:49:17.142Z,29.90
2023-03-02T12:51:56.715Z,29.70
2023-03-02T12:54:31.396Z,28.70
2023-03-02T12:57:19.524Z,29.10
2023-03-02T12:59:58.599Z,31.30
2023-03-02T13:02:30.236Z,27.50
2023-03-02T13:05:30.206Z,27.50
2023-03-02T13:08:05.047Z,28.70
2023-03-02T13:10:37.671Z,42.40
2023-03-02T13:13:20.870Z,28.00
2023-03-02T13:15:56.189Z,28.80
2023-03-02T13:18:32.310Z,31.80
2023-03-02T13:21:05.362Z,28.70
2023-03-02T13:23:34.889Z,35.50
2023-03-02T13:26:05.827Z,29.80
2023-03-02T13:28:38.221Z,28.60
2023-03-02T13:31:25.250Z,27.50
2023-03-02T13:33:56.140Z,21.90
2023-03-02T13:36:31.603Z,23.70
2023-03-02T13:39:01.260Z,29.20
2023-03-02T13:41:32.971Z,27.80
2023-03-02T13:44:23.458Z,28.20
2023-03-02T13:46:52.774Z,27.10
2023-03-02T13:49:33.162Z,27.00
2023-03-02T13:52:03.636Z,29.40
2023-03-02T13:54:35.767Z,28.10
2023-03-02T13:57:06.413Z,27.80
2023-03-02T13:59:36.839Z,24.80
2023-03-02T14:02:25.896Z,28.00
2023-03-02T14:04:54.687Z,31.60
2023-03-02T14:07:26.169Z,30.20
2023-03-02T14:09:57.240Z,29.20
2023-03-02T14:12:30.956Z,28.20
2023-03-02T14:15:03.093Z,30.50
2023-03-02T14:17:31.820Z,27.60
2023-03-02T14:20:00.887Z,28.20
2023-03-02T14:22:30.592Z,27.90
2023-03-02T14:24:59.635Z,28.40
2023-03-02T14:27:31.224Z,29.90
2023-03-02T14:30:01.033Z,33.80
2023-03-02T14:32:29.861Z,26.50
2023-03-02T14:34:58.380Z,31.40
2023-03-02T14:37:30.474Z,28.50
2023-03-02T14:39:59.615Z,32.40
2023-03-02T14:42:28.299Z,36.30
2023-03-02T14:44:58.514Z,32.50
2023-03-02T14:47:28.555Z,33.80
2023-03-02T14:49:57.177Z,31.10
2023-03-02T14:52:32.305Z,32.70
2023-03-02T14:55:07.176Z,31.70
2023-03-02T14:57:38.954Z,35.20
2023-03-02T15:00:09.405Z,38.20
2023-03-02T15:02:38.162Z,32.30
2023-03-02T15:05:07.954Z,33.00
2023-03-02T15:07:37.463Z,30.40
2023-03-02T15:10:07.617Z,27.90
2023-03-02T15:12:36.274Z,25.30
2023-03-02T15:15:05.324Z,26.70
2023-03-02T15:17:33.820Z,27.30
2023-03-02T15:20:02.541Z,29.70
2023-03-02T15:22:31.067Z,23.90
2023-03-02T15:24:59.643Z,20.40
2023-03-02T15:27:28.244Z,25.80
2023-03-02T15:29:57.315Z,29.80
2023-03-02T15:32:26.879Z,34.80
2023-03-02T15:34:55.696Z,29.70
2023-03-02T15:37:24.873Z,27.10
2023-03-02T15:39:55.592Z,23.80
2023-03-02T15:42:24.326Z,22.60
2023-03-02T15:44:53.469Z,26.40
2023-03-02T15:47:22.411Z,28.20
2023-03-02T15:49:51.077Z,27.00
2023-03-02T15:52:21.338Z,25.10
2023-03-02T15:54:49.966Z,25.00
2023-03-02T15:57:19.361Z,33.70
2023-03-02T15:59:47.833Z,32.50
2023-03-02T16:02:16.590Z,28.40
2023-03-02T16:04:45.432Z,32.10
2023-03-02T16:07:14.049Z,29.00
2023-03-02T16:09:45.808Z,28.50
2023-03-02T16:12:15.187Z,27.40
2023-03-02T16:14:44.135Z,27.10
2023-03-02T16:17:12.903Z,26.80
2023-03-02T16:19:41.713Z,25.70
2023-03-02T16:22:10.976Z,24.70
2023-03-02T16:24:41.896Z,24.70
2023-03-02T16:27:10.761Z,26.80
2023-03-02T16:29:39.933Z,24.80
2023-03-02T16:32:10.651Z,25.60
2023-03-02T16:34:40.016Z,23.70
2023-03-02T16:37:09.744Z,24.60
2023-03-02T16:39:38.761Z,28.80
2023-03-02T16:42:07.821Z,25.70
2023-03-02T16:44:38.289Z,27.40
2023-03-02T16:47:07.462Z,27.90
2023-03-02T16:49:36.031Z,30.30
2023-03-02T16:52:05.110Z,33.90
2023-03-02T16:54:35.303Z,38.20
2023-03-02T16:57:04.721Z,32.70
2023-03-02T16:59:33.587Z,31.70
2023-03-02T17:02:02.453Z,29.50
2023-03-02T17:04:34.028Z,30.00
2023-03-02T17:07:05.597Z,30.20
2023-03-02T17:09:36.776Z,48.40
2023-03-02T17:12:05.942Z,80.90
2023-03-02T17:14:35.123Z,107.70
2023-03-02T17:17:04.535Z,89.30
2023-03-02T17:19:33.730Z,68.60
2023-03-02T17:22:04.172Z,84.40
2023-03-02T17:24:33.630Z,37.00
2023-03-02T17:27:04.247Z,38.50
2023-03-02T17:29:36.084Z,65.10
2023-03-02T17:32:06.742Z,57.60
2023-03-02T17:34:37.141Z,63.60
2023-03-02T17:37:07.115Z,65.40
2023-03-02T17:39:41.072Z,58.10
2023-03-02T17:42:10.442Z,59.10
2023-03-02T17:44:41.101Z,60.80
2023-03-02T17:47:10.095Z,62.10
2023-03-02T17:49:41.336Z,58.80
2023-03-02T17:52:10.572Z,63.30
2023-03-02T17:54:40.418Z,58.30
2023-03-02T17:57:11.409Z,95.60
2023-03-02T17:59:40.976Z,97.90
2023-03-02T18:02:11.293Z,89.80
2023-03-02T18:04:41.214Z,71.90
2023-03-02T18:07:10.124Z,86.70
2023-03-02T18:09:40.571Z,57.70
2023-03-02T18:12:10.897Z,38.30
2023-03-02T18:14:41.276Z,56.80
2023-03-02T18:17:13.056Z,45.60
2023-03-02T18:19:42.796Z,42.70
2023-03-02T18:22:12.317Z,35.00
2023-03-02T18:24:46.576Z,39.30
2023-03-02T18:27:15.594Z,28.40
2023-03-02T18:29:46.381Z,30.30
2023-03-02T18:32:16.376Z,26.50
2023-03-02T18:34:45.869Z,29.00
2023-03-02T18:37:17.831Z,30.00
2023-03-02T18:39:48.807Z,28.80
2023-03-02T18:42:18.967Z,30.00
2023-03-02T18:44:50.088Z,31.20
2023-03-02T18:47:21.212Z,33.40
2023-03-02T18:49:50.705Z,33.40
2023-03-02T18:52:21.574Z,29.80
2023-03-02T18:54:51.355Z,30.00
2023-03-02T18:57:23.331Z,34.10
2023-03-02T18:59:54.892Z,31.60
2023-03-02T19:02:25.636Z,91.00
2023-03-02T19:04:56.684Z,56.90
2023-03-02T19:07:26.879Z,43.90
2023-03-02T19:09:57.626Z,38.50
2023-03-02T19:12:28.496Z,41.70
2023-03-02T19:15:00.018Z,32.90
2023-03-02T19:17:32.690Z,34.10
2023-03-02T19:20:04.516Z,33.80
2023-03-02T19:22:36.129Z,144.60
2023-03-02T19:25:07.820Z,67.40
2023-03-02T19:27:38.211Z,35.30
2023-03-02T19:30:12.854Z,44.20
2023-03-02T19:32:43.112Z,52.90
2023-03-02T19:35:20.892Z,40.40
2023-03-02T19:37:54.022Z,300.80
2023-03-02T19:40:31.853Z,286.30
2023-03-02T19:43:03.498Z,49.40
2023-03-02T19:45:36.038Z,112.90
2023-03-02T19:48:08.696Z,43.50
2023-03-02T19:50:38.978Z,52.60
2023-03-02T19:53:10.973Z,73.70
2023-03-02T19:55:43.595Z,49.40
2023-03-02T19:58:18.363Z,47.60
2023-03-02T20:00:48.850Z,42.00
2023-03-02T20:03:21.444Z,46.20
2023-03-02T20:05:51.857Z,42.70
2023-03-02T20:08:23.447Z,44.30
2023-03-02T20:10:54.056Z,44.80
2023-03-02T20:13:27.333Z,40.50
2023-03-02T20:15:57.929Z,43.30
2023-03-02T20:18:30.802Z,48.70
2023-03-02T20:21:02.705Z,55.70
2023-03-02T20:23:33.353Z,47.00
2023-03-02T20:26:06.664Z,41.40
2023-03-02T20:28:38.147Z,39.50
2023-03-02T20:31:14.100Z,37.40
2023-03-02T20:33:50.972Z,35.40
2023-03-02T20:36:32.645Z,39.40
2023-03-02T20:39:13.683Z,39.60
2023-03-02T20:41:44.682Z,56.90
2023-03-02T20:44:16.456Z,44.00
2023-03-02T20:46:52.484Z,38.70
2023-03-02T20:49:26.516Z,47.90
2023-03-02T20:51:58.399Z,55.50
2023-03-02T20:54:35.981Z,51.20
2023-03-02T20:57:10.242Z,57.10
2023-03-02T20:59:40.262Z,44.30
2023-03-02T21:02:11.524Z,45.30
2023-03-02T21:04:42.206Z,47.80
2023-03-02T21:07:13.277Z,38.20
2023-03-02T21:09:45.609Z,36.50
2023-03-02T21:12:16.222Z,38.70
2023-03-02T21:14:46.000Z,29.00
2023-03-02T21:17:15.261Z,30.60
2023-03-02T21:19:44.752Z,31.30
2023-03-02T21:22:14.045Z,32.20
2023-03-02T21:24:43.550Z,27.80
2023-03-02T21:27:12.953Z,33.40
2023-03-02T21:29:42.536Z,29.60
2023-03-02T21:32:13.043Z,28.00
2023-03-02T21:34:42.248Z,30.60
2023-03-02T21:37:11.434Z,30.50
2023-03-02T21:39:40.593Z,31.00
2023-03-02T21:42:09.982Z,30.30
2023-03-02T21:44:40.275Z,32.60
2023-03-02T21:47:09.653Z,32.00
2023-03-02T21:49:39.076Z,35.40
2023-03-02T21:52:08.443Z,38.60
2023-03-02T21:54:37.294Z,37.20
2023-03-02T21:57:08.596Z,36.90
2023-03-02T21:59:37.649Z,39.50
2023-03-02T22:02:06.501Z,42.40
2023-03-02T22:04:35.888Z,37.90
2023-03-02T22:07:05.288Z,45.40
2023-03-02T22:09:34.351Z,47.50
2023-03-02T22:12:12.293Z,44.30
2023-03-02T22:14:41.525Z,48.00
2023-03-02T22:17:22.240Z,51.90
2023-03-02T22:19:52.670Z,55.30
2023-03-02T22:22:27.363Z,60.70
2023-03-02T22:24:56.674Z,56.40
2023-03-02T22:27:30.234Z,54.90
2023-03-02T22:32:37.470Z,61.20
2023-03-02T22:35:27.302Z,61.80
2023-03-02T22:38:02.521Z,64.40
2023-03-02T22:40:34.122Z,56.00
2023-03-02T22:43:29.717Z,57.90
2023-03-02T22:46:22.030Z,56.70
2023-03-02T22:48:53.109Z,60.90
2023-03-02T22:51:24.659Z,58.20
2023-03-02T22:54:00.063Z,56.20
2023-03-02T22:56:35.662Z,61.60
2023-03-02T22:59:22.269Z,61.80
2023-03-02T23:01:53.397Z,52.20
2023-03-02T23:04:25.198Z,52.80
2023-03-02T23:06:56.913Z,46.80
2023-03-02T23:09:28.788Z,49.90
2023-03-02T23:12:01.626Z,45.30
2023-03-02T23:14:55.731Z,38.20
2023-03-02T23:17:39.325Z,36.70
2023-03-02T23:20:13.095Z,34.80
2023-03-02T23:22:42.976Z,33.30
2023-03-02T23:25:11.686Z,32.00
2023-03-02T23:27:40.452Z,35.00
2023-03-02T23:30:10.112Z,32.30
2023-03-02T23:32:39.399Z,33.40
2023-03-02T23:35:08.904Z,29.40
2023-03-02T23:37:37.999Z,30.00
2023-03-02T23:40:08.491Z,32.60
2023-03-02T23:42:38.420Z,36.50
2023-03-02T23:45:08.649Z,32.00
2023-03-02T23:47:37.647Z,34.80
2023-03-02T23:50:06.893Z,35.40
2023-03-02T23:52:35.442Z,35.90
2023-03-02T23:55:05.424Z,32.80
2023-03-02T23:57:34.326Z,32.70
